sensor_id;sensor_type;location;lat;lon;timestamp;P1;durP1;ratioP1;P2;durP2;ratioP2
20034;SDS011;10178;48.034;9.800;2024-01-27T00:02:19;11.05;;;3.75;;
20034;SDS011;10178;48.034;9.800;2024-01-27T00:04:45;10.10;;;3.95;;
20034;SDS011;10178;48.034;9.800;2024-01-27T00:07:10;8.43;;;3.90;;
20034;SDS011;10178;48.034;9.800;2024-01-27T00:09:36;7.00;;;3.63;;
20034;SDS011;10178;48.034;9.800;2024-01-27T00:12:01;7.40;;;3.70;;
20034;SDS011;10178;48.034;9.800;2024-01-27T00:14:27;7.45;;;4.10;;
20034;SDS011;10178;48.034;9.800;2024-01-27T00:16:53;8.63;;;3.70;;
20034;SDS011;10178;48.034;9.800;2024-01-27T00:19:18;7.65;;;4.30;;
20034;SDS011;10178;48.034;9.800;2024-01-27T00:21:44;7.28;;;3.90;;
20034;SDS011;10178;48.034;9.800;2024-01-27T00:24:10;8.35;;;3.85;;
20034;SDS011;10178;48.034;9.800;2024-01-27T00:26:35;9.45;;;4.10;;
20034;SDS011;10178;48.034;9.800;2024-01-27T00:29:02;8.70;;;3.40;;
20034;SDS011;10178;48.034;9.800;2024-01-27T00:31:27;7.35;;;4.45;;
20034;SDS011;10178;48.034;9.800;2024-01-27T00:33:53;9.00;;;4.00;;
20034;SDS011;10178;48.034;9.800;2024-01-27T00:36:18;7.55;;;3.80;;
20034;SDS011;10178;48.034;9.800;2024-01-27T00:38:45;6.32;;;3.53;;
20034;SDS011;10178;48.034;9.800;2024-01-27T00:41:15;6.70;;;3.70;;
20034;SDS011;10178;48.034;9.800;2024-01-27T00:43:41;8.40;;;4.07;;
20034;SDS011;10178;48.034;9.800;2024-01-27T00:46:07;7.63;;;3.97;;
20034;SDS011;10178;48.034;9.800;2024-01-27T00:48:33;5.88;;;3.60;;
20034;SDS011;10178;48.034;9.800;2024-01-27T00:50:58;6.28;;;3.40;;
20034;SDS011;10178;48.034;9.800;2024-01-27T00:53:24;7.43;;;3.92;;
20034;SDS011;10178;48.034;9.800;2024-01-27T00:55:49;8.18;;;3.92;;
20034;SDS011;10178;48.034;9.800;2024-01-27T00:58:15;4.88;;;3.17;;
20034;SDS011;10178;48.034;9.800;2024-01-27T01:00:41;5.60;;;3.40;;
20034;SDS011;10178;48.034;9.800;2024-01-27T01:03:07;7.90;;;3.97;;
20034;SDS011;10178;48.034;9.800;2024-01-27T01:05:32;5.50;;;3.35;;
20034;SDS011;10178;48.034;9.800;2024-01-27T01:07:58;5.00;;;3.25;;
20034;SDS011;10178;48.034;9.800;2024-01-27T01:10:24;6.70;;;3.50;;
20034;SDS011;10178;48.034;9.800;2024-01-27T01:12:49;4.97;;;3.22;;
20034;SDS011;10178;48.034;9.800;2024-01-27T01:15:15;6.68;;;3.25;;
20034;SDS011;10178;48.034;9.800;2024-01-27T01:17:41;7.18;;;3.20;;
20034;SDS011;10178;48.034;9.800;2024-01-27T01:20:07;4.93;;;3.38;;
20034;SDS011;10178;48.034;9.800;2024-01-27T01:22:33;7.07;;;3.20;;
20034;SDS011;10178;48.034;9.800;2024-01-27T01:24:58;5.53;;;3.38;;
20034;SDS011;10178;48.034;9.800;2024-01-27T01:27:24;6.93;;;2.55;;
20034;SDS011;10178;48.034;9.800;2024-01-27T01:29:49;5.20;;;2.90;;
20034;SDS011;10178;48.034;9.800;2024-01-27T01:32:15;4.85;;;2.85;;
20034;SDS011;10178;48.034;9.800;2024-01-27T01:34:41;3.83;;;2.38;;
20034;SDS011;10178;48.034;9.800;2024-01-27T01:37:06;5.10;;;2.75;;
20034;SDS011;10178;48.034;9.800;2024-01-27T01:39:32;3.40;;;2.95;;
20034;SDS011;10178;48.034;9.800;2024-01-27T01:41:57;4.70;;;3.03;;
20034;SDS011;10178;48.034;9.800;2024-01-27T01:44:29;4.00;;;2.42;;
20034;SDS011;10178;48.034;9.800;2024-01-27T01:46:56;4.63;;;2.70;;
20034;SDS011;10178;48.034;9.800;2024-01-27T01:49:23;4.97;;;3.03;;
20034;SDS011;10178;48.034;9.800;2024-01-27T01:51:49;6.93;;;2.95;;
20034;SDS011;10178;48.034;9.800;2024-01-27T01:54:15;4.55;;;2.80;;
20034;SDS011;10178;48.034;9.800;2024-01-27T01:56:41;5.00;;;3.28;;
20034;SDS011;10178;48.034;9.800;2024-01-27T01:59:07;3.53;;;2.85;;
20034;SDS011;10178;48.034;9.800;2024-01-27T02:01:33;4.90;;;2.97;;
20034;SDS011;10178;48.034;9.800;2024-01-27T02:03:58;2.95;;;2.20;;
20034;SDS011;10178;48.034;9.800;2024-01-27T02:06:24;4.05;;;2.35;;
20034;SDS011;10178;48.034;9.800;2024-01-27T02:08:50;4.90;;;2.53;;
20034;SDS011;10178;48.034;9.800;2024-01-27T02:11:16;4.90;;;3.17;;
20034;SDS011;10178;48.034;9.800;2024-01-27T02:13:42;6.55;;;2.70;;
20034;SDS011;10178;48.034;9.800;2024-01-27T02:16:08;3.63;;;2.60;;
20034;SDS011;10178;48.034;9.800;2024-01-27T02:18:34;3.70;;;2.63;;
20034;SDS011;10178;48.034;9.800;2024-01-27T02:20:59;4.68;;;2.85;;
20034;SDS011;10178;48.034;9.800;2024-01-27T02:23:25;5.32;;;2.53;;
20034;SDS011;10178;48.034;9.800;2024-01-27T02:25:50;3.83;;;2.60;;
20034;SDS011;10178;48.034;9.800;2024-01-27T02:28:16;7.38;;;2.90;;
20034;SDS011;10178;48.034;9.800;2024-01-27T02:30:42;3.83;;;2.70;;
20034;SDS011;10178;48.034;9.800;2024-01-27T02:33:08;4.82;;;2.50;;
20034;SDS011;10178;48.034;9.800;2024-01-27T02:35:33;4.75;;;2.50;;
20034;SDS011;10178;48.034;9.800;2024-01-27T02:37:59;5.25;;;2.50;;
20034;SDS011;10178;48.034;9.800;2024-01-27T02:40:25;2.60;;;2.00;;
20034;SDS011;10178;48.034;9.800;2024-01-27T02:42:50;4.38;;;2.55;;
20034;SDS011;10178;48.034;9.800;2024-01-27T02:45:16;2.95;;;2.33;;
20034;SDS011;10178;48.034;9.800;2024-01-27T02:47:42;4.53;;;2.45;;
20034;SDS011;10178;48.034;9.800;2024-01-27T02:50:07;4.75;;;2.67;;
20034;SDS011;10178;48.034;9.800;2024-01-27T02:52:33;4.07;;;2.40;;
20034;SDS011;10178;48.034;9.800;2024-01-27T02:54:59;3.33;;;2.15;;
20034;SDS011;10178;48.034;9.800;2024-01-27T02:57:25;3.28;;;2.22;;
20034;SDS011;10178;48.034;9.800;2024-01-27T02:59:51;3.80;;;2.53;;
20034;SDS011;10178;48.034;9.800;2024-01-27T03:02:16;2.47;;;2.10;;
20034;SDS011;10178;48.034;9.800;2024-01-27T03:04:42;2.95;;;2.40;;
20034;SDS011;10178;48.034;9.800;2024-01-27T03:07:08;2.60;;;2.10;;
20034;SDS011;10178;48.034;9.800;2024-01-27T03:09:33;6.10;;;2.80;;
20034;SDS011;10178;48.034;9.800;2024-01-27T03:11:59;2.47;;;1.95;;
20034;SDS011;10178;48.034;9.800;2024-01-27T03:14:25;2.88;;;2.20;;
20034;SDS011;10178;48.034;9.800;2024-01-27T03:16:51;2.92;;;2.13;;
20034;SDS011;10178;48.034;9.800;2024-01-27T03:19:17;2.78;;;2.33;;
20034;SDS011;10178;48.034;9.800;2024-01-27T03:21:43;2.03;;;1.85;;
20034;SDS011;10178;48.034;9.800;2024-01-27T03:24:08;4.20;;;2.70;;
20034;SDS011;10178;48.034;9.800;2024-01-27T03:26:34;5.15;;;2.33;;
20034;SDS011;10178;48.034;9.800;2024-01-27T03:28:59;2.17;;;1.98;;
20034;SDS011;10178;48.034;9.800;2024-01-27T03:31:32;3.70;;;2.08;;
20034;SDS011;10178;48.034;9.800;2024-01-27T03:33:59;4.20;;;2.27;;
20034;SDS011;10178;48.034;9.800;2024-01-27T03:36:25;3.40;;;2.37;;
20034;SDS011;10178;48.034;9.800;2024-01-27T03:38:51;2.97;;;2.42;;
20034;SDS011;10178;48.034;9.800;2024-01-27T03:41:17;2.63;;;2.23;;
20034;SDS011;10178;48.034;9.800;2024-01-27T03:43:42;3.57;;;2.80;;
20034;SDS011;10178;48.034;9.800;2024-01-27T03:46:08;4.33;;;2.47;;
20034;SDS011;10178;48.034;9.800;2024-01-27T03:48:34;3.28;;;2.28;;
20034;SDS011;10178;48.034;9.800;2024-01-27T03:51:00;3.47;;;2.40;;
20034;SDS011;10178;48.034;9.800;2024-01-27T03:53:26;2.93;;;2.60;;
20034;SDS011;10178;48.034;9.800;2024-01-27T03:55:52;3.53;;;2.50;;
20034;SDS011;10178;48.034;9.800;2024-01-27T03:58:18;3.67;;;2.30;;
20034;SDS011;10178;48.034;9.800;2024-01-27T04:00:44;4.53;;;2.20;;
20034;SDS011;10178;48.034;9.800;2024-01-27T04:03:10;5.33;;;2.60;;
20034;SDS011;10178;48.034;9.800;2024-01-27T04:05:35;3.85;;;2.33;;
20034;SDS011;10178;48.034;9.800;2024-01-27T04:08:01;5.43;;;3.03;;
20034;SDS011;10178;48.034;9.800;2024-01-27T04:10:27;2.72;;;2.38;;
20034;SDS011;10178;48.034;9.800;2024-01-27T04:12:53;3.83;;;2.40;;
20034;SDS011;10178;48.034;9.800;2024-01-27T04:15:19;3.72;;;2.17;;
20034;SDS011;10178;48.034;9.800;2024-01-27T04:17:44;3.70;;;2.23;;
20034;SDS011;10178;48.034;9.800;2024-01-27T04:20:10;2.77;;;2.43;;
20034;SDS011;10178;48.034;9.800;2024-01-27T04:22:37;3.40;;;1.98;;
20034;SDS011;10178;48.034;9.800;2024-01-27T04:25:03;4.83;;;2.43;;
20034;SDS011;10178;48.034;9.800;2024-01-27T04:27:30;2.45;;;2.20;;
20034;SDS011;10178;48.034;9.800;2024-01-27T04:29:56;2.42;;;2.22;;
20034;SDS011;10178;48.034;9.800;2024-01-27T04:32:24;5.32;;;2.80;;
20034;SDS011;10178;48.034;9.800;2024-01-27T04:34:51;4.65;;;2.53;;
20034;SDS011;10178;48.034;9.800;2024-01-27T04:37:17;4.13;;;2.50;;
20034;SDS011;10178;48.034;9.800;2024-01-27T04:39:43;4.47;;;2.20;;
20034;SDS011;10178;48.034;9.800;2024-01-27T04:42:08;2.67;;;2.30;;
20034;SDS011;10178;48.034;9.800;2024-01-27T04:44:35;3.42;;;2.40;;
20034;SDS011;10178;48.034;9.800;2024-01-27T04:47:00;4.10;;;2.53;;
20034;SDS011;10178;48.034;9.800;2024-01-27T04:49:26;3.23;;;2.83;;
20034;SDS011;10178;48.034;9.800;2024-01-27T04:51:52;3.33;;;2.03;;
20034;SDS011;10178;48.034;9.800;2024-01-27T04:54:17;3.03;;;2.55;;
20034;SDS011;10178;48.034;9.800;2024-01-27T04:56:43;2.73;;;2.47;;
20034;SDS011;10178;48.034;9.800;2024-01-27T04:59:08;2.67;;;2.20;;
20034;SDS011;10178;48.034;9.800;2024-01-27T05:01:34;3.08;;;2.30;;
20034;SDS011;10178;48.034;9.800;2024-01-27T05:04:00;3.20;;;2.50;;
20034;SDS011;10178;48.034;9.800;2024-01-27T05:06:25;2.47;;;2.28;;
20034;SDS011;10178;48.034;9.800;2024-01-27T05:08:51;6.20;;;2.92;;
20034;SDS011;10178;48.034;9.800;2024-01-27T05:11:25;6.10;;;3.28;;
20034;SDS011;10178;48.034;9.800;2024-01-27T05:13:56;6.90;;;4.45;;
20034;SDS011;10178;48.034;9.800;2024-01-27T05:16:21;7.22;;;4.20;;
20034;SDS011;10178;48.034;9.800;2024-01-27T05:18:47;6.53;;;3.90;;
20034;SDS011;10178;48.034;9.800;2024-01-27T05:21:13;4.87;;;3.73;;
20034;SDS011;10178;48.034;9.800;2024-01-27T05:23:39;5.88;;;3.60;;
20034;SDS011;10178;48.034;9.800;2024-01-27T05:26:05;4.57;;;3.55;;
20034;SDS011;10178;48.034;9.800;2024-01-27T05:28:31;4.77;;;3.70;;
20034;SDS011;10178;48.034;9.800;2024-01-27T05:30:57;7.10;;;3.60;;
20034;SDS011;10178;48.034;9.800;2024-01-27T05:33:22;5.60;;;3.10;;
20034;SDS011;10178;48.034;9.800;2024-01-27T05:35:48;4.97;;;3.40;;
20034;SDS011;10178;48.034;9.800;2024-01-27T05:38:15;6.38;;;3.35;;
20034;SDS011;10178;48.034;9.800;2024-01-27T05:40:41;4.65;;;3.25;;
20034;SDS011;10178;48.034;9.800;2024-01-27T05:43:07;5.70;;;3.70;;
20034;SDS011;10178;48.034;9.800;2024-01-27T05:45:32;6.37;;;3.83;;
20034;SDS011;10178;48.034;9.800;2024-01-27T05:47:58;7.93;;;3.45;;
20034;SDS011;10178;48.034;9.800;2024-01-27T05:50:23;5.17;;;3.20;;
20034;SDS011;10178;48.034;9.800;2024-01-27T05:52:49;5.00;;;3.20;;
20034;SDS011;10178;48.034;9.800;2024-01-27T05:55:15;5.70;;;3.10;;
20034;SDS011;10178;48.034;9.800;2024-01-27T05:57:42;4.95;;;2.85;;
20034;SDS011;10178;48.034;9.800;2024-01-27T06:00:07;5.68;;;3.60;;
20034;SDS011;10178;48.034;9.800;2024-01-27T06:02:34;7.15;;;3.50;;
20034;SDS011;10178;48.034;9.800;2024-01-27T06:05:01;7.15;;;3.55;;
20034;SDS011;10178;48.034;9.800;2024-01-27T06:07:27;5.38;;;3.60;;
20034;SDS011;10178;48.034;9.800;2024-01-27T06:09:52;6.05;;;3.67;;
20034;SDS011;10178;48.034;9.800;2024-01-27T06:12:18;8.50;;;3.70;;
20034;SDS011;10178;48.034;9.800;2024-01-27T06:14:44;4.83;;;3.13;;
20034;SDS011;10178;48.034;9.800;2024-01-27T06:17:10;6.03;;;3.38;;
20034;SDS011;10178;48.034;9.800;2024-01-27T06:19:35;7.68;;;3.28;;
20034;SDS011;10178;48.034;9.800;2024-01-27T06:22:02;4.83;;;3.10;;
20034;SDS011;10178;48.034;9.800;2024-01-27T06:24:27;6.07;;;3.60;;
20034;SDS011;10178;48.034;9.800;2024-01-27T06:26:53;5.32;;;3.65;;
20034;SDS011;10178;48.034;9.800;2024-01-27T06:29:19;5.93;;;3.47;;
20034;SDS011;10178;48.034;9.800;2024-01-27T06:31:44;5.57;;;3.60;;
20034;SDS011;10178;48.034;9.800;2024-01-27T06:34:10;5.63;;;3.30;;
20034;SDS011;10178;48.034;9.800;2024-01-27T06:36:36;8.25;;;4.60;;
20034;SDS011;10178;48.034;9.800;2024-01-27T06:39:01;7.82;;;4.40;;
20034;SDS011;10178;48.034;9.800;2024-01-27T06:41:27;9.80;;;4.95;;
20034;SDS011;10178;48.034;9.800;2024-01-27T06:43:52;10.60;;;5.43;;
20034;SDS011;10178;48.034;9.800;2024-01-27T06:46:19;9.37;;;5.43;;
20034;SDS011;10178;48.034;9.800;2024-01-27T06:48:44;10.70;;;5.30;;
20034;SDS011;10178;48.034;9.800;2024-01-27T06:51:10;9.10;;;5.30;;
20034;SDS011;10178;48.034;9.800;2024-01-27T06:53:35;9.30;;;4.70;;
20034;SDS011;10178;48.034;9.800;2024-01-27T06:56:01;8.03;;;4.77;;
20034;SDS011;10178;48.034;9.800;2024-01-27T06:58:26;6.73;;;4.27;;
20034;SDS011;10178;48.034;9.800;2024-01-27T07:00:52;6.37;;;4.20;;
20034;SDS011;10178;48.034;9.800;2024-01-27T07:03:18;6.87;;;4.03;;
20034;SDS011;10178;48.034;9.800;2024-01-27T07:05:43;5.67;;;4.10;;
20034;SDS011;10178;48.034;9.800;2024-01-27T07:08:09;6.37;;;3.50;;
20034;SDS011;10178;48.034;9.800;2024-01-27T07:10:37;7.25;;;4.28;;
20034;SDS011;10178;48.034;9.800;2024-01-27T07:13:03;8.37;;;4.80;;
20034;SDS011;10178;48.034;9.800;2024-01-27T07:15:31;7.30;;;3.90;;
20034;SDS011;10178;48.034;9.800;2024-01-27T07:17:56;7.90;;;3.92;;
20034;SDS011;10178;48.034;9.800;2024-01-27T07:20:22;7.20;;;4.50;;
20034;SDS011;10178;48.034;9.800;2024-01-27T07:22:49;8.43;;;4.13;;
20034;SDS011;10178;48.034;9.800;2024-01-27T07:25:15;8.17;;;4.13;;
20034;SDS011;10178;48.034;9.800;2024-01-27T07:27:41;6.17;;;3.63;;
20034;SDS011;10178;48.034;9.800;2024-01-27T07:30:06;6.73;;;4.03;;
20034;SDS011;10178;48.034;9.800;2024-01-27T07:32:34;6.20;;;3.50;;
20034;SDS011;10178;48.034;9.800;2024-01-27T07:34:59;6.43;;;3.80;;
20034;SDS011;10178;48.034;9.800;2024-01-27T07:37:25;5.13;;;3.50;;
20034;SDS011;10178;48.034;9.800;2024-01-27T07:39:51;6.27;;;3.50;;
20034;SDS011;10178;48.034;9.800;2024-01-27T07:42:16;6.37;;;3.87;;
20034;SDS011;10178;48.034;9.800;2024-01-27T07:44:42;7.50;;;3.73;;
20034;SDS011;10178;48.034;9.800;2024-01-27T07:47:07;6.67;;;3.57;;
20034;SDS011;10178;48.034;9.800;2024-01-27T07:49:36;7.60;;;3.97;;
20034;SDS011;10178;48.034;9.800;2024-01-27T07:52:01;9.53;;;5.33;;
20034;SDS011;10178;48.034;9.800;2024-01-27T07:54:28;11.23;;;5.43;;
20034;SDS011;10178;48.034;9.800;2024-01-27T07:56:54;12.17;;;6.27;;
20034;SDS011;10178;48.034;9.800;2024-01-27T07:59:22;14.13;;;6.78;;
20034;SDS011;10178;48.034;9.800;2024-01-27T08:01:49;12.20;;;6.43;;
20034;SDS011;10178;48.034;9.800;2024-01-27T08:04:15;13.57;;;7.25;;
20034;SDS011;10178;48.034;9.800;2024-01-27T08:06:48;12.73;;;7.03;;
20034;SDS011;10178;48.034;9.800;2024-01-27T08:09:16;13.87;;;7.10;;
20034;SDS011;10178;48.034;9.800;2024-01-27T08:11:43;12.57;;;7.13;;
20034;SDS011;10178;48.034;9.800;2024-01-27T08:14:09;13.83;;;7.33;;
20034;SDS011;10178;48.034;9.800;2024-01-27T08:16:34;12.27;;;6.13;;
20034;SDS011;10178;48.034;9.800;2024-01-27T08:19:00;12.87;;;6.97;;
20034;SDS011;10178;48.034;9.800;2024-01-27T08:21:26;12.27;;;6.70;;
20034;SDS011;10178;48.034;9.800;2024-01-27T08:23:52;13.07;;;6.87;;
20034;SDS011;10178;48.034;9.800;2024-01-27T08:26:18;13.33;;;7.23;;
20034;SDS011;10178;48.034;9.800;2024-01-27T08:28:45;11.33;;;6.53;;
20034;SDS011;10178;48.034;9.800;2024-01-27T08:31:12;13.60;;;7.30;;
20034;SDS011;10178;48.034;9.800;2024-01-27T08:33:37;10.33;;;6.30;;
20034;SDS011;10178;48.034;9.800;2024-01-27T08:36:03;11.63;;;6.63;;
20034;SDS011;10178;48.034;9.800;2024-01-27T08:38:29;13.48;;;6.72;;
20034;SDS011;10178;48.034;9.800;2024-01-27T08:40:54;13.40;;;6.90;;
20034;SDS011;10178;48.034;9.800;2024-01-27T08:43:20;10.90;;;7.07;;
20034;SDS011;10178;48.034;9.800;2024-01-27T08:45:46;13.85;;;7.80;;
20034;SDS011;10178;48.034;9.800;2024-01-27T08:48:11;10.70;;;7.43;;
20034;SDS011;10178;48.034;9.800;2024-01-27T08:50:37;10.70;;;6.97;;
20034;SDS011;10178;48.034;9.800;2024-01-27T08:53:04;14.50;;;7.30;;
20034;SDS011;10178;48.034;9.800;2024-01-27T08:55:29;15.00;;;7.63;;
20034;SDS011;10178;48.034;9.800;2024-01-27T08:57:56;12.53;;;7.30;;
20034;SDS011;10178;48.034;9.800;2024-01-27T09:00:22;11.57;;;7.20;;
20034;SDS011;10178;48.034;9.800;2024-01-27T09:02:48;13.47;;;7.73;;
20034;SDS011;10178;48.034;9.800;2024-01-27T09:05:14;11.30;;;7.50;;
20034;SDS011;10178;48.034;9.800;2024-01-27T09:07:39;11.35;;;6.82;;
20034;SDS011;10178;48.034;9.800;2024-01-27T09:10:05;12.97;;;7.63;;
20034;SDS011;10178;48.034;9.800;2024-01-27T09:12:32;11.73;;;7.40;;
20034;SDS011;10178;48.034;9.800;2024-01-27T09:14:58;11.67;;;6.73;;
20034;SDS011;10178;48.034;9.800;2024-01-27T09:17:23;8.30;;;4.30;;
20034;SDS011;10178;48.034;9.800;2024-01-27T09:19:49;9.77;;;4.87;;
20034;SDS011;10178;48.034;9.800;2024-01-27T09:22:15;14.07;;;6.10;;
20034;SDS011;10178;48.034;9.800;2024-01-27T09:24:41;9.80;;;5.63;;
20034;SDS011;10178;48.034;9.800;2024-01-27T09:27:07;20.30;;;8.40;;
20034;SDS011;10178;48.034;9.800;2024-01-27T09:29:32;21.83;;;9.63;;
20034;SDS011;10178;48.034;9.800;2024-01-27T09:31:58;18.33;;;8.57;;
20034;SDS011;10178;48.034;9.800;2024-01-27T09:34:23;18.87;;;8.10;;
20034;SDS011;10178;48.034;9.800;2024-01-27T09:36:49;15.00;;;7.80;;
20034;SDS011;10178;48.034;9.800;2024-01-27T09:39:15;14.63;;;7.93;;
20034;SDS011;10178;48.034;9.800;2024-01-27T09:41:40;13.67;;;7.30;;
20034;SDS011;10178;48.034;9.800;2024-01-27T09:44:07;11.67;;;7.13;;
20034;SDS011;10178;48.034;9.800;2024-01-27T09:46:32;9.33;;;6.40;;
20034;SDS011;10178;48.034;9.800;2024-01-27T09:48:58;11.80;;;6.33;;
20034;SDS011;10178;48.034;9.800;2024-01-27T09:51:25;15.77;;;7.33;;
20034;SDS011;10178;48.034;9.800;2024-01-27T09:53:51;13.70;;;7.40;;
20034;SDS011;10178;48.034;9.800;2024-01-27T09:56:18;12.33;;;7.03;;
20034;SDS011;10178;48.034;9.800;2024-01-27T09:58:44;12.03;;;6.87;;
20034;SDS011;10178;48.034;9.800;2024-01-27T10:01:11;12.03;;;6.70;;
20034;SDS011;10178;48.034;9.800;2024-01-27T10:03:40;10.13;;;6.30;;
20034;SDS011;10178;48.034;9.800;2024-01-27T10:06:08;10.13;;;6.10;;
20034;SDS011;10178;48.034;9.800;2024-01-27T10:08:34;12.40;;;6.40;;
20034;SDS011;10178;48.034;9.800;2024-01-27T10:11:04;11.43;;;6.13;;
20034;SDS011;10178;48.034;9.800;2024-01-27T10:13:32;10.60;;;5.82;;
20034;SDS011;10178;48.034;9.800;2024-01-27T10:16:02;9.50;;;5.68;;
20034;SDS011;10178;48.034;9.800;2024-01-27T10:18:29;12.37;;;5.70;;
20034;SDS011;10178;48.034;9.800;2024-01-27T10:20:55;10.70;;;6.00;;
20034;SDS011;10178;48.034;9.800;2024-01-27T10:23:21;13.83;;;6.53;;
20034;SDS011;10178;48.034;9.800;2024-01-27T10:25:47;9.80;;;5.53;;
20034;SDS011;10178;48.034;9.800;2024-01-27T10:28:12;11.35;;;6.43;;
20034;SDS011;10178;48.034;9.800;2024-01-27T10:30:38;11.33;;;6.03;;
20034;SDS011;10178;48.034;9.800;2024-01-27T10:33:04;8.57;;;5.22;;
20034;SDS011;10178;48.034;9.800;2024-01-27T10:35:32;9.73;;;5.60;;
20034;SDS011;10178;48.034;9.800;2024-01-27T10:37:58;13.35;;;5.75;;
20034;SDS011;10178;48.034;9.800;2024-01-27T10:40:23;13.15;;;5.32;;
20034;SDS011;10178;48.034;9.800;2024-01-27T10:42:58;9.57;;;5.47;;
20034;SDS011;10178;48.034;9.800;2024-01-27T10:45:31;7.85;;;5.13;;
20034;SDS011;10178;48.034;9.800;2024-01-27T10:47:59;7.07;;;5.13;;
20034;SDS011;10178;48.034;9.800;2024-01-27T10:50:27;8.40;;;5.60;;
20034;SDS011;10178;48.034;9.800;2024-01-27T10:52:52;12.23;;;6.05;;
20034;SDS011;10178;48.034;9.800;2024-01-27T10:55:22;10.68;;;5.78;;
20034;SDS011;10178;48.034;9.800;2024-01-27T10:57:48;9.48;;;5.15;;
20034;SDS011;10178;48.034;9.800;2024-01-27T11:00:15;8.88;;;5.50;;
20034;SDS011;10178;48.034;9.800;2024-01-27T11:02:41;6.70;;;5.03;;
20034;SDS011;10178;48.034;9.800;2024-01-27T11:05:09;10.03;;;5.17;;
20034;SDS011;10178;48.034;9.800;2024-01-27T11:07:36;8.88;;;5.03;;
20034;SDS011;10178;48.034;9.800;2024-01-27T11:10:04;10.47;;;5.43;;
20034;SDS011;10178;48.034;9.800;2024-01-27T11:12:30;10.23;;;5.00;;
20034;SDS011;10178;48.034;9.800;2024-01-27T11:14:56;8.18;;;4.97;;
20034;SDS011;10178;48.034;9.800;2024-01-27T11:17:25;11.05;;;5.13;;
20034;SDS011;10178;48.034;9.800;2024-01-27T11:19:51;9.47;;;5.10;;
20034;SDS011;10178;48.034;9.800;2024-01-27T11:22:26;9.27;;;4.47;;
20034;SDS011;10178;48.034;9.800;2024-01-27T11:25:38;6.88;;;4.45;;
20034;SDS011;10178;48.034;9.800;2024-01-27T11:27:43;9.10;;;4.77;;
20034;SDS011;10178;48.034;9.800;2024-01-27T11:30:32;7.57;;;4.30;;
20034;SDS011;10178;48.034;9.800;2024-01-27T11:33:02;8.43;;;4.77;;
20034;SDS011;10178;48.034;9.800;2024-01-27T11:35:29;9.80;;;4.20;;
20034;SDS011;10178;48.034;9.800;2024-01-27T11:37:55;8.57;;;3.97;;
20034;SDS011;10178;48.034;9.800;2024-01-27T11:40:21;11.02;;;4.90;;
20034;SDS011;10178;48.034;9.800;2024-01-27T11:42:56;7.75;;;4.47;;
20034;SDS011;10178;48.034;9.800;2024-01-27T11:45:26;8.55;;;3.85;;
20034;SDS011;10178;48.034;9.800;2024-01-27T11:47:55;8.18;;;4.63;;
20034;SDS011;10178;48.034;9.800;2024-01-27T11:50:21;8.68;;;3.97;;
20034;SDS011;10178;48.034;9.800;2024-01-27T11:52:47;8.17;;;3.10;;
20034;SDS011;10178;48.034;9.800;2024-01-27T11:55:13;7.05;;;3.50;;
20034;SDS011;10178;48.034;9.800;2024-01-27T11:57:40;5.10;;;3.65;;
20034;SDS011;10178;48.034;9.800;2024-01-27T12:00:07;9.10;;;3.72;;
20034;SDS011;10178;48.034;9.800;2024-01-27T12:02:34;11.18;;;3.53;;
20034;SDS011;10178;48.034;9.800;2024-01-27T12:05:00;6.20;;;3.20;;
20034;SDS011;10178;48.034;9.800;2024-01-27T12:07:26;7.07;;;3.83;;
20034;SDS011;10178;48.034;9.800;2024-01-27T12:09:52;8.40;;;4.05;;
20034;SDS011;10178;48.034;9.800;2024-01-27T12:12:18;8.13;;;3.70;;
20034;SDS011;10178;48.034;9.800;2024-01-27T12:14:45;8.57;;;3.77;;
20034;SDS011;10178;48.034;9.800;2024-01-27T12:17:12;6.45;;;3.58;;
20034;SDS011;10178;48.034;9.800;2024-01-27T12:19:38;6.82;;;3.58;;
20034;SDS011;10178;48.034;9.800;2024-01-27T12:22:20;10.75;;;4.10;;
20034;SDS011;10178;48.034;9.800;2024-01-27T12:24:46;8.07;;;3.78;;
20034;SDS011;10178;48.034;9.800;2024-01-27T12:30:42;6.88;;;3.17;;
20034;SDS011;10178;48.034;9.800;2024-01-27T12:33:11;9.25;;;3.67;;
20034;SDS011;10178;48.034;9.800;2024-01-27T12:35:37;10.68;;;3.85;;
20034;SDS011;10178;48.034;9.800;2024-01-27T12:38:05;9.18;;;4.13;;
20034;SDS011;10178;48.034;9.800;2024-01-27T12:40:44;8.38;;;4.13;;
20034;SDS011;10178;48.034;9.800;2024-01-27T12:43:12;7.47;;;3.55;;
20034;SDS011;10178;48.034;9.800;2024-01-27T12:45:37;9.35;;;3.40;;
20034;SDS011;10178;48.034;9.800;2024-01-27T12:48:07;10.52;;;3.90;;
20034;SDS011;10178;48.034;9.800;2024-01-27T12:50:32;4.53;;;2.93;;
20034;SDS011;10178;48.034;9.800;2024-01-27T12:53:22;6.73;;;3.10;;
20034;SDS011;10178;48.034;9.800;2024-01-27T12:56:00;6.13;;;2.85;;
20034;SDS011;10178;48.034;9.800;2024-01-27T12:59:02;8.90;;;3.03;;
20034;SDS011;10178;48.034;9.800;2024-01-27T13:01:57;8.63;;;2.63;;
20034;SDS011;10178;48.034;9.800;2024-01-27T13:07:45;6.13;;;3.20;;
20034;SDS011;10178;48.034;9.800;2024-01-27T13:10:11;6.30;;;3.33;;
20034;SDS011;10178;48.034;9.800;2024-01-27T13:12:37;12.65;;;3.80;;
20034;SDS011;10178;48.034;9.800;2024-01-27T13:15:02;7.38;;;3.35;;
20034;SDS011;10178;48.034;9.800;2024-01-27T13:17:28;6.53;;;3.20;;
20034;SDS011;10178;48.034;9.800;2024-01-27T13:19:54;8.40;;;3.60;;
20034;SDS011;10178;48.034;9.800;2024-01-27T13:22:20;6.53;;;3.03;;
20034;SDS011;10178;48.034;9.800;2024-01-27T13:24:49;9.60;;;4.20;;
20034;SDS011;10178;48.034;9.800;2024-01-27T13:27:14;8.27;;;3.80;;
20034;SDS011;10178;48.034;9.800;2024-01-27T13:29:40;5.97;;;3.42;;
20034;SDS011;10178;48.034;9.800;2024-01-27T13:32:06;6.82;;;3.58;;
20034;SDS011;10178;48.034;9.800;2024-01-27T13:34:32;5.22;;;3.60;;
20034;SDS011;10178;48.034;9.800;2024-01-27T13:36:58;10.73;;;4.25;;
20034;SDS011;10178;48.034;9.800;2024-01-27T13:39:25;6.70;;;3.38;;
20034;SDS011;10178;48.034;9.800;2024-01-27T13:41:50;9.37;;;3.13;;
20034;SDS011;10178;48.034;9.800;2024-01-27T13:44:16;7.10;;;3.70;;
20034;SDS011;10178;48.034;9.800;2024-01-27T13:46:42;7.57;;;3.97;;
20034;SDS011;10178;48.034;9.800;2024-01-27T13:49:07;6.90;;;3.83;;
20034;SDS011;10178;48.034;9.800;2024-01-27T13:51:33;5.72;;;3.47;;
20034;SDS011;10178;48.034;9.800;2024-01-27T13:53:59;8.80;;;4.17;;
20034;SDS011;10178;48.034;9.800;2024-01-27T13:56:24;7.40;;;3.83;;
20034;SDS011;10178;48.034;9.800;2024-01-27T13:58:51;9.37;;;3.67;;
20034;SDS011;10178;48.034;9.800;2024-01-27T14:01:16;6.70;;;3.30;;
20034;SDS011;10178;48.034;9.800;2024-01-27T14:03:42;6.53;;;3.53;;
20034;SDS011;10178;48.034;9.800;2024-01-27T14:06:08;7.40;;;3.80;;
20034;SDS011;10178;48.034;9.800;2024-01-27T14:08:37;10.48;;;3.88;;
20034;SDS011;10178;48.034;9.800;2024-01-27T14:11:03;7.33;;;3.63;;
20034;SDS011;10178;48.034;9.800;2024-01-27T14:13:29;10.27;;;3.57;;
20034;SDS011;10178;48.034;9.800;2024-01-27T14:15:56;7.75;;;3.80;;
20034;SDS011;10178;48.034;9.800;2024-01-27T14:18:23;4.87;;;3.20;;
20034;SDS011;10178;48.034;9.800;2024-01-27T14:20:48;7.15;;;3.67;;
20034;SDS011;10178;48.034;9.800;2024-01-27T14:23:15;6.88;;;4.13;;
20034;SDS011;10178;48.034;9.800;2024-01-27T14:25:58;8.17;;;4.10;;
20034;SDS011;10178;48.034;9.800;2024-01-27T14:28:46;7.30;;;3.63;;
20034;SDS011;10178;48.034;9.800;2024-01-27T14:31:14;6.35;;;3.63;;
20034;SDS011;10178;48.034;9.800;2024-01-27T14:33:39;7.15;;;3.63;;
20034;SDS011;10178;48.034;9.800;2024-01-27T14:36:05;7.50;;;3.53;;
20034;SDS011;10178;48.034;9.800;2024-01-27T14:38:31;9.20;;;3.67;;
20034;SDS011;10178;48.034;9.800;2024-01-27T14:40:57;8.82;;;3.83;;
20034;SDS011;10178;48.034;9.800;2024-01-27T14:43:22;7.63;;;3.63;;
20034;SDS011;10178;48.034;9.800;2024-01-27T14:49:43;5.75;;;3.42;;
20034;SDS011;10178;48.034;9.800;2024-01-27T14:52:51;9.25;;;3.92;;
20034;SDS011;10178;48.034;9.800;2024-01-27T14:55:17;8.80;;;3.83;;